sensor_id;sensor_type;location;lat;lon;timestamp;pressure;altitude;pressure_sealevel;temperature;humidity
67038;BME280;53940;53.204;6.590;2022-08-02T00:02:22;101870.84;;;20.63;58.68
67038;BME280;53940;53.204;6.590;2022-08-02T00:05:22;101869.13;;;20.62;59.06
67038;BME280;53940;53.204;6.590;2022-08-02T00:08:23;101866.47;;;20.62;59.09
67038;BME280;53940;53.204;6.590;2022-08-02T00:11:23;101868.16;;;20.63;58.85
67038;BME280;53940;53.204;6.590;2022-08-02T00:14:24;101869.13;;;20.62;58.77
67038;BME280;53940;53.204;6.590;2022-08-02T00:17:24;101874.50;;;20.62;58.94
67038;BME280;53940;53.204;6.590;2022-08-02T00:20:24;101872.78;;;20.60;59.09
67038;BME280;53940;53.204;6.590;2022-08-02T00:23:25;101870.09;;;20.60;58.85
67038;BME280;53940;53.204;6.590;2022-08-02T00:26:25;101872.78;;;20.60;59.03
67038;BME280;53940;53.204;6.590;2022-08-02T00:29:25;101870.09;;;20.60;59.09
67038;BME280;53940;53.204;6.590;2022-08-02T00:32:26;101875.47;;;20.60;58.94
67038;BME280;53940;53.204;6.590;2022-08-02T00:35:26;101877.28;;;20.60;58.83
67038;BME280;53940;53.204;6.590;2022-08-02T00:38:26;101876.44;;;20.59;58.74
67038;BME280;53940;53.204;6.590;2022-08-02T00:41:27;101873.75;;;20.59;58.71
67038;BME280;53940;53.204;6.590;2022-08-02T00:44:27;101867.53;;;20.59;58.85
67038;BME280;53940;53.204;6.590;2022-08-02T00:47:27;101864.00;;;20.58;58.98
67038;BME280;53940;53.204;6.590;2022-08-02T00:50:28;101864.00;;;20.58;58.90
67038;BME280;53940;53.204;6.590;2022-08-02T00:53:29;101868.41;;;20.59;59.01
67038;BME280;53940;53.204;6.590;2022-08-02T00:56:29;101863.16;;;20.58;58.77
67038;BME280;53940;53.204;6.590;2022-08-02T00:59:29;101857.81;;;20.58;58.94
67038;BME280;53940;53.204;6.590;2022-08-02T01:02:30;101859.59;;;20.57;58.67
67038;BME280;53940;53.204;6.590;2022-08-02T01:05:30;101862.28;;;20.57;59.00
67038;BME280;53940;53.204;6.590;2022-08-02T01:08:30;101856.94;;;20.57;58.84
67038;BME280;53940;53.204;6.590;2022-08-02T01:11:32;101858.63;;;20.58;59.08
67038;BME280;53940;53.204;6.590;2022-08-02T01:14:32;101851.56;;;20.57;58.72
67038;BME280;53940;53.204;6.590;2022-08-02T01:17:37;101854.25;;;20.57;58.68
67038;BME280;53940;53.204;6.590;2022-08-02T01:31:13;101844.50;;;20.56;58.70
67038;BME280;53940;53.204;6.590;2022-08-02T01:34:21;101839.16;;;20.56;58.83
67038;BME280;53940;53.204;6.590;2022-08-02T01:37:48;101825.78;;;20.56;58.62
67038;BME280;53940;53.204;6.590;2022-08-02T01:40:49;101832.94;;;20.56;58.52
67038;BME280;53940;53.204;6.590;2022-08-02T01:43:55;101832.09;;;20.55;58.57
67038;BME280;53940;53.204;6.590;2022-08-02T01:47:00;101822.38;;;20.54;58.68
67038;BME280;53940;53.204;6.590;2022-08-02T01:50:02;101819.69;;;20.54;58.49
67038;BME280;53940;53.204;6.590;2022-08-02T01:53:08;101819.69;;;20.54;58.46
67038;BME280;53940;53.204;6.590;2022-08-02T01:56:11;101825.03;;;20.54;58.50
67038;BME280;53940;53.204;6.590;2022-08-02T01:59:13;101823.34;;;20.53;58.49
67038;BME280;53940;53.204;6.590;2022-08-02T02:02:16;101817.00;;;20.54;58.87
67038;BME280;53940;53.204;6.590;2022-08-02T02:05:19;101816.13;;;20.54;58.52
67038;BME280;53940;53.204;6.590;2022-08-02T02:08:26;101822.47;;;20.53;58.41
67038;BME280;53940;53.204;6.590;2022-08-02T02:11:28;101819.78;;;20.53;58.24
67038;BME280;53940;53.204;6.590;2022-08-02T02:14:29;101812.63;;;20.53;58.28
67038;BME280;53940;53.204;6.590;2022-08-02T02:17:31;101814.44;;;20.53;58.12
67038;BME280;53940;53.204;6.590;2022-08-02T02:20:32;101806.41;;;20.53;58.12
67038;BME280;53940;53.204;6.590;2022-08-02T02:23:32;101794.81;;;20.52;58.18
67038;BME280;53940;53.204;6.590;2022-08-02T02:26:33;101784.13;;;20.52;58.03
67038;BME280;53940;53.204;6.590;2022-08-02T02:29:38;101783.16;;;20.53;58.00
67038;BME280;53940;53.204;6.590;2022-08-02T02:32:44;101770.72;;;20.52;58.21
67038;BME280;53940;53.204;6.590;2022-08-02T02:35:49;101762.69;;;20.52;58.29
67038;BME280;53940;53.204;6.590;2022-08-02T02:38:51;101763.56;;;20.53;58.33
67038;BME280;53940;53.204;6.590;2022-08-02T02:41:55;101770.72;;;20.52;58.12
67038;BME280;53940;53.204;6.590;2022-08-02T02:44:58;101762.69;;;20.52;58.35
67038;BME280;53940;53.204;6.590;2022-08-02T02:47:59;101766.34;;;20.51;58.15
67038;BME280;53940;53.204;6.590;2022-08-02T02:51:03;101768.03;;;20.52;57.98
67038;BME280;53940;53.204;6.590;2022-08-02T02:54:05;101766.34;;;20.51;58.08
67038;BME280;53940;53.204;6.590;2022-08-02T02:57:07;101757.34;;;20.52;58.06
67038;BME280;53940;53.204;6.590;2022-08-02T03:00:12;101752.94;;;20.51;58.26
67038;BME280;53940;53.204;6.590;2022-08-02T03:03:14;101751.97;;;20.52;58.25
67038;BME280;53940;53.204;6.590;2022-08-02T03:06:15;101751.97;;;20.52;57.98
67038;BME280;53940;53.204;6.590;2022-08-02T03:09:16;101754.66;;;20.52;58.06
67038;BME280;53940;53.204;6.590;2022-08-02T03:12:16;101754.66;;;20.52;58.08
67038;BME280;53940;53.204;6.590;2022-08-02T03:15:18;101747.50;;;20.53;58.12
67038;BME280;53940;53.204;6.590;2022-08-02T03:18:35;101751.97;;;20.52;57.90
67038;BME280;53940;53.204;6.590;2022-08-02T03:21:37;101757.34;;;20.52;58.06
67038;BME280;53940;53.204;6.590;2022-08-02T03:24:37;101751.03;;;20.53;57.98
67038;BME280;53940;53.204;6.590;2022-08-02T03:27:38;101748.34;;;20.53;57.87
67038;BME280;53940;53.204;6.590;2022-08-02T03:30:39;101741.28;;;20.52;58.00
67038;BME280;53940;53.204;6.590;2022-08-02T03:33:39;101736.78;;;20.53;58.18
67038;BME280;53940;53.204;6.590;2022-08-02T03:36:40;101732.28;;;20.53;58.19
67038;BME280;53940;53.204;6.590;2022-08-02T03:39:41;101732.28;;;20.53;57.89
67038;BME280;53940;53.204;6.590;2022-08-02T03:42:42;101732.28;;;20.53;57.91
67038;BME280;53940;53.204;6.590;2022-08-02T03:45:46;101726.94;;;20.53;57.90
67038;BME280;53940;53.204;6.590;2022-08-02T03:48:48;101728.63;;;20.54;57.90
67038;BME280;53940;53.204;6.590;2022-08-02T03:51:49;101734.97;;;20.53;58.00
67038;BME280;53940;53.204;6.590;2022-08-02T03:54:50;101736.78;;;20.53;58.19
67038;BME280;53940;53.204;6.590;2022-08-02T03:57:51;101721.56;;;20.53;57.89
67038;BME280;53940;53.204;6.590;2022-08-02T04:00:52;101716.22;;;20.53;58.04
67038;BME280;53940;53.204;6.590;2022-08-02T04:03:53;101716.22;;;20.53;58.12
67038;BME280;53940;53.204;6.590;2022-08-02T04:06:53;101726.94;;;20.53;58.02
67038;BME280;53940;53.204;6.590;2022-08-02T04:09:54;101711.69;;;20.54;57.87
67038;BME280;53940;53.204;6.590;2022-08-02T04:12:55;101714.28;;;20.55;58.19
67038;BME280;53940;53.204;6.590;2022-08-02T04:16:20;101706.25;;;20.55;57.82
67038;BME280;53940;53.204;6.590;2022-08-02T04:19:26;101708.19;;;20.53;57.83
67038;BME280;53940;53.204;6.590;2022-08-02T04:22:40;101709.03;;;20.54;57.77
67038;BME280;53940;53.204;6.590;2022-08-02T04:25:44;101714.28;;;20.55;57.97
67038;BME280;53940;53.204;6.590;2022-08-02T04:28:46;101705.25;;;20.56;58.09
67038;BME280;53940;53.204;6.590;2022-08-02T04:31:47;101711.47;;;20.57;57.88
67038;BME280;53940;53.204;6.590;2022-08-02T04:34:48;101713.28;;;20.56;58.06
67038;BME280;53940;53.204;6.590;2022-08-02T04:37:49;101706.97;;;20.57;57.96
67038;BME280;53940;53.204;6.590;2022-08-02T04:40:52;101708.81;;;20.57;57.75
67038;BME280;53940;53.204;6.590;2022-08-02T04:43:53;101706.13;;;20.57;58.01
67038;BME280;53940;53.204;6.590;2022-08-02T04:46:53;101708.66;;;20.58;57.70
67038;BME280;53940;53.204;6.590;2022-08-02T04:49:54;101705.97;;;20.58;58.07
67038;BME280;53940;53.204;6.590;2022-08-02T04:52:55;101708.66;;;20.58;58.08
67038;BME280;53940;53.204;6.590;2022-08-02T04:55:55;101697.94;;;20.58;57.75
67038;BME280;53940;53.204;6.590;2022-08-02T04:58:55;101705.03;;;20.59;57.87
67038;BME280;53940;53.204;6.590;2022-08-02T05:01:56;101702.47;;;20.58;57.73
67038;BME280;53940;53.204;6.590;2022-08-02T05:04:56;101697.00;;;20.59;57.80
67038;BME280;53940;53.204;6.590;2022-08-02T05:07:56;101688.00;;;20.60;57.77
67038;BME280;53940;53.204;6.590;2022-08-02T05:10:57;101698.59;;;20.62;58.04
67038;BME280;53940;53.204;6.590;2022-08-02T05:13:57;101703.09;;;20.62;58.04
67038;BME280;53940;53.204;6.590;2022-08-02T05:16:57;101699.44;;;20.63;57.99
67038;BME280;53940;53.204;6.590;2022-08-02T05:19:58;101710.16;;;20.63;57.61
67038;BME280;53940;53.204;6.590;2022-08-02T05:22:58;101701.13;;;20.64;57.78
67038;BME280;53940;53.204;6.590;2022-08-02T05:25:58;101701.13;;;20.64;57.68
67038;BME280;53940;53.204;6.590;2022-08-02T05:28:59;101696.53;;;20.66;57.84
67038;BME280;53940;53.204;6.590;2022-08-02T05:31:59;101688.50;;;20.66;57.67
67038;BME280;53940;53.204;6.590;2022-08-02T05:35:01;101685.81;;;20.66;57.74
67038;BME280;53940;53.204;6.590;2022-08-02T05:38:01;101691.03;;;20.67;57.88
67038;BME280;53940;53.204;6.590;2022-08-02T05:41:01;101690.09;;;20.68;57.62
67038;BME280;53940;53.204;6.590;2022-08-02T05:44:02;101680.22;;;20.69;57.91
67038;BME280;53940;53.204;6.590;2022-08-02T05:47:03;101680.94;;;20.71;57.72
67038;BME280;53940;53.204;6.590;2022-08-02T05:50:05;101697.88;;;20.71;57.89
67038;BME280;53940;53.204;6.590;2022-08-02T05:53:23;101703.84;;;20.75;57.79
67038;BME280;53940;53.204;6.590;2022-08-02T05:56:24;101707.25;;;20.77;57.83
67038;BME280;53940;53.204;6.590;2022-08-02T05:59:38;101700.69;;;20.81;57.98
67038;BME280;53940;53.204;6.590;2022-08-02T06:02:53;101700.34;;;20.86;57.77
67038;BME280;53940;53.204;6.590;2022-08-02T06:06:04;101697.34;;;20.91;57.96
67038;BME280;53940;53.204;6.590;2022-08-02T06:09:10;101692.59;;;20.94;57.68
67038;BME280;53940;53.204;6.590;2022-08-02T06:12:15;101696.59;;;21.00;57.60
67038;BME280;53940;53.204;6.590;2022-08-02T06:15:18;101688.31;;;21.03;57.63
67038;BME280;53940;53.204;6.590;2022-08-02T06:18:19;101688.78;;;21.08;57.80
67038;BME280;53940;53.204;6.590;2022-08-02T06:21:21;101684.91;;;21.12;57.46
67038;BME280;53940;53.204;6.590;2022-08-02T06:24:22;101694.41;;;21.17;57.84
67038;BME280;53940;53.204;6.590;2022-08-02T06:27:27;101692.22;;;21.22;57.80
67038;BME280;53940;53.204;6.590;2022-08-02T06:30:28;101687.34;;;21.27;57.45
67038;BME280;53940;53.204;6.590;2022-08-02T06:33:29;101685.13;;;21.32;57.71
67038;BME280;53940;53.204;6.590;2022-08-02T06:36:51;101685.72;;;21.36;57.53
67038;BME280;53940;53.204;6.590;2022-08-02T06:43:28;101668.03;;;21.45;57.08
67038;BME280;53940;53.204;6.590;2022-08-02T06:46:31;101666.72;;;21.50;57.53
67038;BME280;53940;53.204;6.590;2022-08-02T06:49:32;101671.56;;;21.57;57.51
67038;BME280;53940;53.204;6.590;2022-08-02T06:52:32;101676.56;;;21.61;57.51
67038;BME280;53940;53.204;6.590;2022-08-02T06:55:34;101677.03;;;21.66;57.33
67038;BME280;53940;53.204;6.590;2022-08-02T06:58:35;101673.16;;;21.71;57.40
67038;BME280;53940;53.204;6.590;2022-08-02T07:01:35;101667.28;;;21.77;57.07
67038;BME280;53940;53.204;6.590;2022-08-02T07:04:35;101667.72;;;21.82;57.33
67038;BME280;53940;53.204;6.590;2022-08-02T07:07:36;101662.84;;;21.87;57.24
67038;BME280;53940;53.204;6.590;2022-08-02T07:10:36;101656.13;;;21.93;57.18
67038;BME280;53940;53.204;6.590;2022-08-02T07:13:36;101644.88;;;21.99;56.89
67038;BME280;53940;53.204;6.590;2022-08-02T07:16:37;101654.22;;;22.05;56.95
67038;BME280;53940;53.204;6.590;2022-08-02T07:19:37;101655.69;;;22.09;56.84
67038;BME280;53940;53.204;6.590;2022-08-02T07:22:38;101649.06;;;22.13;56.70
67038;BME280;53940;53.204;6.590;2022-08-02T07:25:39;101656.75;;;22.18;56.59
67038;BME280;53940;53.204;6.590;2022-08-02T07:28:39;101650.97;;;22.23;56.63
67038;BME280;53940;53.204;6.590;2022-08-02T07:31:40;101649.59;;;22.28;56.54
67038;BME280;53940;53.204;6.590;2022-08-02T07:34:40;101634.06;;;22.32;56.52
67038;BME280;53940;53.204;6.590;2022-08-02T07:37:40;101632.72;;;22.38;56.38
67038;BME280;53940;53.204;6.590;2022-08-02T07:40:42;101623.25;;;22.43;56.41
67038;BME280;53940;53.204;6.590;2022-08-02T07:43:43;101616.66;;;22.47;56.47
67038;BME280;53940;53.204;6.590;2022-08-02T07:46:44;101611.78;;;22.53;56.12
67038;BME280;53940;53.204;6.590;2022-08-02T07:49:45;101612.22;;;22.58;56.01
67038;BME280;53940;53.204;6.590;2022-08-02T07:52:46;101600.94;;;22.64;56.16
67038;BME280;53940;53.204;6.590;2022-08-02T07:55:46;101596.97;;;22.68;56.11
67038;BME280;53940;53.204;6.590;2022-08-02T07:58:47;101600.97;;;22.74;55.95
67038;BME280;53940;53.204;6.590;2022-08-02T08:01:48;101599.56;;;22.80;55.75
67038;BME280;53940;53.204;6.590;2022-08-02T08:04:49;101600.16;;;22.83;55.74
67038;BME280;53940;53.204;6.590;2022-08-02T08:07:49;101613.78;;;22.92;55.68
67038;BME280;53940;53.204;6.590;2022-08-02T08:10:49;101611.50;;;22.97;55.53
67038;BME280;53940;53.204;6.590;2022-08-02T08:13:50;101609.44;;;23.00;55.47
67038;BME280;53940;53.204;6.590;2022-08-02T08:16:50;101609.84;;;23.06;55.33
67038;BME280;53940;53.204;6.590;2022-08-02T08:19:50;101600.53;;;23.10;55.40
67038;BME280;53940;53.204;6.590;2022-08-02T08:22:51;101596.59;;;23.14;55.15
67038;BME280;53940;53.204;6.590;2022-08-02T08:25:52;101589.91;;;23.18;55.06
67038;BME280;53940;53.204;6.590;2022-08-02T08:28:52;101583.28;;;23.22;55.10
67038;BME280;53940;53.204;6.590;2022-08-02T08:31:52;101578.47;;;23.26;54.93
67038;BME280;53940;53.204;6.590;2022-08-02T08:34:53;101587.13;;;23.29;54.94
67038;BME280;53940;53.204;6.590;2022-08-02T08:37:53;101586.03;;;23.32;55.02
67038;BME280;53940;53.204;6.590;2022-08-02T08:40:54;101587.59;;;23.35;54.70
67038;BME280;53940;53.204;6.590;2022-08-02T08:43:55;101585.59;;;23.37;54.76
67038;BME280;53940;53.204;6.590;2022-08-02T08:46:56;101590.72;;;23.40;54.51
67038;BME280;53940;53.204;6.590;2022-08-02T08:50:01;101586.03;;;23.42;54.52
67038;BME280;53940;53.204;6.590;2022-08-02T08:53:05;101583.06;;;23.45;54.42
67038;BME280;53940;53.204;6.590;2022-08-02T08:56:06;101585.47;;;23.48;54.33
67038;BME280;53940;53.204;6.590;2022-08-02T08:59:07;101580.81;;;23.50;54.39
67038;BME280;53940;53.204;6.590;2022-08-02T09:02:10;101576.13;;;23.52;54.30
67038;BME280;53940;53.204;6.590;2022-08-02T09:05:13;101573.16;;;23.55;54.21
67038;BME280;53940;53.204;6.590;2022-08-02T09:08:14;101573.75;;;23.59;54.10
67038;BME280;53940;53.204;6.590;2022-08-02T09:11:16;101569.75;;;23.63;54.10
67038;BME280;53940;53.204;6.590;2022-08-02T09:14:34;101573.19;;;23.65;54.21
67038;BME280;53940;53.204;6.590;2022-08-02T09:17:49;101563.94;;;23.68;54.06
67038;BME280;53940;53.204;6.590;2022-08-02T09:20:55;101567.22;;;23.72;53.88
67038;BME280;53940;53.204;6.590;2022-08-02T09:23:58;101558.84;;;23.75;53.92
67038;BME280;53940;53.204;6.590;2022-08-02T09:26:58;101560.41;;;23.77;53.89
67038;BME280;53940;53.204;6.590;2022-08-02T09:29:59;101553.03;;;23.79;53.82
67038;BME280;53940;53.204;6.590;2022-08-02T09:32:59;101547.38;;;23.82;53.73
67038;BME280;53940;53.204;6.590;2022-08-02T09:36:02;101551.63;;;23.85;53.74
67038;BME280;53940;53.204;6.590;2022-08-02T09:39:05;101543.38;;;23.87;53.52
67038;BME280;53940;53.204;6.590;2022-08-02T09:42:07;101541.41;;;23.89;53.38
67038;BME280;53940;53.204;6.590;2022-08-02T09:45:09;101540.44;;;23.90;53.54
67038;BME280;53940;53.204;6.590;2022-08-02T09:48:10;101544.81;;;23.91;53.51
67038;BME280;53940;53.204;6.590;2022-08-02T09:51:10;101545.66;;;23.91;53.10
67038;BME280;53940;53.204;6.590;2022-08-02T09:54:19;101541.28;;;23.90;53.29
67038;BME280;53940;53.204;6.590;2022-08-02T09:57:27;101543.13;;;23.90;53.31
67038;BME280;53940;53.204;6.590;2022-08-02T10:00:28;101540.44;;;23.90;53.26
67038;BME280;53940;53.204;6.590;2022-08-02T10:03:29;101543.13;;;23.90;53.25
67038;BME280;53940;53.204;6.590;2022-08-02T10:06:30;101542.13;;;23.91;53.25
67038;BME280;53940;53.204;6.590;2022-08-02T10:09:31;101534.03;;;23.91;52.98
67038;BME280;53940;53.204;6.590;2022-08-02T10:12:32;101534.91;;;23.91;53.02
67038;BME280;53940;53.204;6.590;2022-08-02T10:15:33;101534.75;;;23.93;53.24
67038;BME280;53940;53.204;6.590;2022-08-02T10:18:34;101532.06;;;23.93;53.16
67038;BME280;53940;53.204;6.590;2022-08-02T10:21:44;101534.03;;;23.91;53.20
67038;BME280;53940;53.204;6.590;2022-08-02T10:24:45;101526.97;;;23.90;53.03
67038;BME280;53940;53.204;6.590;2022-08-02T10:27:46;101522.44;;;23.90;52.96
67038;BME280;53940;53.204;6.590;2022-08-02T10:30:48;101517.19;;;23.89;53.00
67038;BME280;53940;53.204;6.590;2022-08-02T10:33:50;101519.03;;;23.88;53.02
67038;BME280;53940;53.204;6.590;2022-08-02T10:36:52;101519.88;;;23.89;53.14
67038;BME280;53940;53.204;6.590;2022-08-02T10:39:55;101508.56;;;23.85;53.37
67038;BME280;53940;53.204;6.590;2022-08-02T10:42:57;101506.72;;;23.86;53.16
67038;BME280;53940;53.204;6.590;2022-08-02T10:46:23;101509.69;;;23.82;53.19
67038;BME280;53940;53.204;6.590;2022-08-02T10:49:23;101502.63;;;23.81;53.23
67038;BME280;53940;53.204;6.590;2022-08-02T10:52:28;101509.97;;;23.79;53.28
67038;BME280;53940;53.204;6.590;2022-08-02T10:55:43;101506.59;;;23.77;53.30
67038;BME280;53940;53.204;6.590;2022-08-02T10:58:43;101510.28;;;23.76;53.17
67038;BME280;53940;53.204;6.590;2022-08-02T11:01:44;101508.59;;;23.75;53.20
67038;BME280;53940;53.204;6.590;2022-08-02T11:07:47;101499.09;;;23.71;53.14
67038;BME280;53940;53.204;6.590;2022-08-02T11:10:48;101495.53;;;23.71;53.03
67038;BME280;53940;53.204;6.590;2022-08-02T11:14:02;101487.63;;;23.69;53.24
67038;BME280;53940;53.204;6.590;2022-08-02T11:23:36;101500.66;;;23.64;53.38
67038;BME280;53940;53.204;6.590;2022-08-02T11:32:39;101502.63;;;23.62;53.33
67038;BME280;53940;53.204;6.590;2022-08-02T11:35:40;101505.50;;;23.60;53.44
67038;BME280;53940;53.204;6.590;2022-08-02T11:38:40;101497.56;;;23.59;53.42
67038;BME280;53940;53.204;6.590;2022-08-02T11:41:41;101494.16;;;23.57;53.29
67038;BME280;53940;53.204;6.590;2022-08-02T11:44:42;101491.47;;;23.57;53.42
67038;BME280;53940;53.204;6.590;2022-08-02T11:47:51;101489.75;;;23.55;53.48
67038;BME280;53940;53.204;6.590;2022-08-02T11:51:09;101494.44;;;23.53;53.40
67038;BME280;53940;53.204;6.590;2022-08-02T11:54:09;101495.44;;;23.52;53.51
67038;BME280;53940;53.204;6.590;2022-08-02T11:57:14;101497.25;;;23.52;53.49
67038;BME280;53940;53.204;6.590;2022-08-02T12:00:16;101491.06;;;23.51;53.42
67038;BME280;53940;53.204;6.590;2022-08-02T12:03:17;101485.66;;;23.51;53.46
67038;BME280;53940;53.204;6.590;2022-08-02T12:06:18;101491.06;;;23.51;53.58
67038;BME280;53940;53.204;6.590;2022-08-02T12:09:18;101497.44;;;23.50;53.48
67038;BME280;53940;53.204;6.590;2022-08-02T12:12:18;101489.34;;;23.50;53.39
67038;BME280;53940;53.204;6.590;2022-08-02T12:18:32;101496.69;;;23.48;53.53
67038;BME280;53940;53.204;6.590;2022-08-02T12:22:17;101486.94;;;23.47;53.66
67038;BME280;53940;53.204;6.590;2022-08-02T12:25:19;101496.88;;;23.47;53.51
67038;BME280;53940;53.204;6.590;2022-08-02T12:28:22;101496.88;;;23.47;53.79
67038;BME280;53940;53.204;6.590;2022-08-02T12:31:42;101490.63;;;23.46;53.67
67038;BME280;53940;53.204;6.590;2022-08-02T12:34:44;101497.00;;;23.45;53.62
67038;BME280;53940;53.204;6.590;2022-08-02T12:38:08;101495.31;;;23.44;53.70
67038;BME280;53940;53.204;6.590;2022-08-02T12:41:11;101507.03;;;23.43;53.54
67038;BME280;53940;53.204;6.590;2022-08-02T12:44:15;101502.66;;;23.42;53.55
67038;BME280;53940;53.204;6.590;2022-08-02T12:47:16;101500.97;;;23.41;53.66
67038;BME280;53940;53.204;6.590;2022-08-02T12:50:27;101493.88;;;23.40;53.71
67038;BME280;53940;53.204;6.590;2022-08-02T12:53:32;101493.88;;;23.40;53.70
67038;BME280;53940;53.204;6.590;2022-08-02T12:56:37;101499.41;;;23.38;53.76
67038;BME280;53940;53.204;6.590;2022-08-02T12:59:39;101501.25;;;23.38;53.74
67038;BME280;53940;53.204;6.590;2022-08-02T13:02:39;101506.63;;;23.38;53.63
67038;BME280;53940;53.204;6.590;2022-08-02T13:05:40;101505.78;;;23.37;53.66
67038;BME280;53940;53.204;6.590;2022-08-02T13:08:40;101488.94;;;23.35;53.72
67038;BME280;53940;53.204;6.590;2022-08-02T13:11:41;101493.31;;;23.36;53.69
67038;BME280;53940;53.204;6.590;2022-08-02T13:14:41;101490.75;;;23.35;53.66
67038;BME280;53940;53.204;6.590;2022-08-02T13:17:42;101485.38;;;23.35;53.64
67038;BME280;53940;53.204;6.590;2022-08-02T13:20:42;101484.56;;;23.34;53.84
67038;BME280;53940;53.204;6.590;2022-08-02T13:23:43;101489.06;;;23.34;53.76
67038;BME280;53940;53.204;6.590;2022-08-02T13:26:43;101488.22;;;23.33;53.83
67038;BME280;53940;53.204;6.590;2022-08-02T13:29:44;101483.69;;;23.34;53.89
67038;BME280;53940;53.204;6.590;2022-08-02T13:32:44;101479.19;;;23.34;53.96
67038;BME280;53940;53.204;6.590;2022-08-02T13:35:46;101478.31;;;23.34;54.02
67038;BME280;53940;53.204;6.590;2022-08-02T13:38:46;101476.63;;;23.33;53.96
67038;BME280;53940;53.204;6.590;2022-08-02T13:41:47;101476.63;;;23.33;54.07
67038;BME280;53940;53.204;6.590;2022-08-02T13:44:47;101471.25;;;23.33;54.20
67038;BME280;53940;53.204;6.590;2022-08-02T13:47:47;101472.94;;;23.34;54.21
67038;BME280;53940;53.204;6.590;2022-08-02T13:50:48;101470.38;;;23.32;54.24
67038;BME280;53940;53.204;6.590;2022-08-02T13:53:48;101471.25;;;23.33;54.27
67038;BME280;53940;53.204;6.590;2022-08-02T13:56:49;101467.56;;;23.34;54.27
67038;BME280;53940;53.204;6.590;2022-08-02T13:59:49;101470.25;;;23.34;54.30
67038;BME280;53940;53.204;6.590;2022-08-02T14:02:50;101467.56;;;23.34;54.30
67038;BME280;53940;53.204;6.590;2022-08-02T14:05:50;101453.25;;;23.33;54.27
67038;BME280;53940;53.204;6.590;2022-08-02T14:08:51;101461.31;;;23.33;54.29
67038;BME280;53940;53.204;6.590;2022-08-02T14:11:51;101462.19;;;23.34;54.29
67038;BME280;53940;53.204;6.590;2022-08-02T14:14:52;101461.31;;;23.33;54.29
67038;BME280;53940;53.204;6.590;2022-08-02T14:17:52;101444.34;;;23.33;54.39
67038;BME280;53940;53.204;6.590;2022-08-02T14:20:52;101441.66;;;23.33;54.53
67038;BME280;53940;53.204;6.590;2022-08-02T14:23:52;101439.81;;;23.33;54.44
67038;BME280;53940;53.204;6.590;2022-08-02T14:26:53;101447.88;;;23.33;54.44
67038;BME280;53940;53.204;6.590;2022-08-02T14:29:53;101438.97;;;23.33;54.53
67038;BME280;53940;53.204;6.590;2022-08-02T14:32:53;101436.28;;;23.33;54.54
67038;BME280;53940;53.204;6.590;2022-08-02T14:35:54;101428.22;;;23.33;54.32
67038;BME280;53940;53.204;6.590;2022-08-02T14:38:55;101429.91;;;23.34;54.52
67038;BME280;53940;53.204;6.590;2022-08-02T14:41:56;101429.03;;;23.33;54.49
67038;BME280;53940;53.204;6.590;2022-08-02T14:44:56;101434.44;;;23.33;54.54
67038;BME280;53940;53.204;6.590;2022-08-02T14:47:56;101433.59;;;23.33;54.52
67038;BME280;53940;53.204;6.590;2022-08-02T14:50:57;101430.78;;;23.34;54.50
67038;BME280;53940;53.204;6.590;2022-08-02T14:54:01;101428.91;;;23.35;54.51
67038;BME280;53940;53.204;6.590;2022-08-02T14:57:02;101426.22;;;23.35;54.54
67038;BME280;53940;53.204;6.590;2022-08-02T15:00:03;101422.53;;;23.36;54.41
67038;BME280;53940;53.204;6.590;2022-08-02T15:03:04;101426.22;;;23.35;54.54
67038;BME280;53940;53.204;6.590;2022-08-02T15:06:05;101425.22;;;23.36;54.49
67038;BME280;53940;53.204;6.590;2022-08-02T15:09:05;101411.78;;;23.36;54.38
67038;BME280;53940;53.204;6.590;2022-08-02T15:12:07;101405.56;;;23.35;54.46
67038;BME280;53940;53.204;6.590;2022-08-02T15:15:08;101403.72;;;23.36;54.40
67038;BME280;53940;53.204;6.590;2022-08-02T15:18:08;101390.25;;;23.36;54.40
67038;BME280;53940;53.204;6.590;2022-08-02T15:21:09;101379.50;;;23.36;54.44
67038;BME280;53940;53.204;6.590;2022-08-02T15:24:10;101378.69;;;23.35;54.40
67038;BME280;53940;53.204;6.590;2022-08-02T15:27:10;101383.19;;;23.35;54.48
67038;BME280;53940;53.204;6.590;2022-08-02T15:30:13;101377.81;;;23.35;54.43
67038;BME280;53940;53.204;6.590;2022-08-02T15:33:16;101380.50;;;23.35;54.53
67038;BME280;53940;53.204;6.590;2022-08-02T15:36:16;101371.59;;;23.34;54.52
67038;BME280;53940;53.204;6.590;2022-08-02T15:39:17;101368.06;;;23.34;54.51
67038;BME280;53940;53.204;6.590;2022-08-02T15:42:17;101373.44;;;23.34;54.55
67038;BME280;53940;53.204;6.590;2022-08-02T15:45:18;101373.44;;;23.34;54.50
67038;BME280;53940;53.204;6.590;2022-08-02T15:48:18;101371.75;;;23.33;54.59
67038;BME280;53940;53.204;6.590;2022-08-02T15:51:19;101385.19;;;23.33;54.57
67038;BME280;53940;53.204;6.590;2022-08-02T15:54:19;101390.56;;;23.33;54.60
67038;BME280;53940;53.204;6.590;2022-08-02T15:57:19;101395.09;;;23.32;54.54
67038;BME280;53940;53.204;6.590;2022-08-02T16:00:20;101393.41;;;23.31;54.99
67038;BME280;53940;53.204;6.590;2022-08-02T16:03:21;101387.16;;;23.31;54.66
67038;BME280;53940;53.204;6.590;2022-08-02T16:06:21;101389.84;;;23.31;54.61
67038;BME280;53940;53.204;6.590;2022-08-02T16:09:22;101377.38;;;23.29;54.62
67038;BME280;53940;53.204;6.590;2022-08-02T16:12:22;101373.84;;;23.29;54.58
67038;BME280;53940;53.204;6.590;2022-08-02T16:15:22;101372.97;;;23.28;54.62
67038;BME280;53940;53.204;6.590;2022-08-02T16:18:23;101372.16;;;23.28;54.75
67038;BME280;53940;53.204;6.590;2022-08-02T16:21:24;101376.66;;;23.27;54.34
67038;BME280;53940;53.204;6.590;2022-08-02T16:24:24;101368.59;;;23.27;54.55
67038;BME280;53940;53.204;6.590;2022-08-02T16:27:26;101370.44;;;23.27;54.67